Time;durP1;ratioP1;P1;durP2;ratioP2;P2;SDS_P1;SDS_P2;PMS_P1;PMS_P2;Temp;Humidity;BMP_temperature;BMP_pressure;BME280_temperature;BME280_humidity;BME280_pressure;Samples;Min_cycle;Max_cycle;Signal;HPM_P1;HPM_P2
2022/05/10 00:01:03;;;;;;;0.30;0.30;;;11.90;99.90;;;;;;5073373;28;20307;-72
2022/05/10 00:03:36;;;;;;;1.63;1.05;;;12.00;99.90;;;;;;5073333;28;20212;-71
2022/05/10 00:06:02;;;;;;;0.30;0.30;;;11.90;99.90;;;;;;5073407;28;20287;-71
2022/05/10 00:08:28;;;;;;;0.50;0.50;;;11.80;99.90;;;;;;5073634;28;20404;-72
2022/05/10 00:10:56;;;;;;;0.30;0.30;;;11.70;99.90;;;;;;5073305;28;20410;-70
2022/05/10 00:13:23;;;;;;;0.30;0.30;;;11.60;99.90;;;;;;5073201;28;20455;-72
2022/05/10 00:15:49;;;;;;;0.40;0.40;;;11.60;99.90;;;;;;5073266;28;20399;-71
2022/05/10 00:18:17;;;;;;;0.30;0.30;;;11.50;99.90;;;;;;5073477;28;20490;-72
2022/05/10 00:20:44;;;;;;;0.60;0.60;;;11.50;99.90;;;;;;5073100;28;20461;-70
2022/05/10 00:23:10;;;;;;;1.02;1.02;;;11.50;99.90;;;;;;5075625;28;20266;-72
2022/05/10 00:25:35;;;;;;;0.30;0.30;;;11.50;99.90;;;;;;5077270;28;20173;-72
2022/05/10 00:28:01;;;;;;;0.30;0.30;;;11.50;99.90;;;;;;5077306;28;20185;-70
2022/05/10 00:30:27;;;;;;;0.30;0.30;;;11.50;99.90;;;;;;5077245;28;20161;-72
2022/05/10 00:32:53;;;;;;;0.30;0.30;;;11.50;99.90;;;;;;5077247;28;20582;-72
2022/05/10 00:35:24;;;;;;;0.30;0.30;;;11.50;99.90;;;;;;5077436;28;20177;-71
2022/05/10 00:37:51;;;;;;;0.30;0.30;;;11.50;99.90;;;;;;5077297;28;20431;-72
2022/05/10 00:40:20;;;;;;;0.30;0.30;;;11.50;99.90;;;;;;5075665;28;20407;-72
2022/05/10 00:43:00;;;;;;;0.30;0.30;;;11.50;99.90;;;;;;5076894;28;20423;-72
2022/05/10 00:46:02;;;;;;;0.30;0.30;;;11.40;99.90;;;;;;5075746;28;20455;-72
2022/05/10 00:48:45;;;;;;;0.40;0.40;;;11.40;99.90;;;;;;5077013;28;20198;-71
2022/05/10 00:51:48;;;;;;;0.30;0.30;;;11.30;99.90;;;;;;5076654;28;20173;-70
2022/05/10 00:54:52;;;;;;;0.30;0.30;;;11.30;99.90;;;;;;5076730;28;20169;-71
2022/05/10 00:57:26;;;;;;;0.50;0.50;;;11.20;99.90;;;;;;5077188;28;20169;-71
2022/05/10 01:00:01;;;;;;;0.30;0.30;;;11.20;99.90;;;;;;5076535;28;20170;-71
2022/05/10 01:02:37;;;;;;;0.30;0.30;;;11.30;99.90;;;;;;5076483;28;20259;-71
2022/05/10 01:05:23;;;;;;;0.30;0.30;;;11.30;99.90;;;;;;5076631;28;20538;-72
2022/05/10 01:08:11;;;;;;;0.88;0.88;;;11.30;99.90;;;;;;5076441;28;20558;-71
2022/05/10 01:10:42;;;;;;;0.50;0.50;;;11.40;99.90;;;;;;5076276;28;20245;-71
2022/05/10 01:13:28;;;;;;;0.30;0.30;;;11.40;99.90;;;;;;5076293;28;20423;-72
2022/05/10 01:16:16;;;;;;;0.30;0.30;;;11.30;99.90;;;;;;5076257;28;20199;-72
2022/05/10 01:18:43;;;;;;;0.30;0.30;;;11.30;99.90;;;;;;5076495;28;20752;-72
2022/05/10 01:21:20;;;;;;;0.30;0.30;;;11.30;99.90;;;;;;5076051;28;20177;-72
2022/05/10 01:24:29;;;;;;;0.30;0.30;;;11.30;99.90;;;;;;5076265;28;20205;-71
2022/05/10 01:26:58;;;;;;;0.40;0.40;;;11.20;99.90;;;;;;5075336;28;20638;-71
2022/05/10 01:29:49;;;;;;;0.30;0.30;;;11.10;99.90;;;;;;5074916;28;20256;-70
2022/05/10 01:35:11;;;;;;;0.30;0.30;;;11.10;99.90;;;;;;5076458;28;20189;-71
2022/05/10 01:37:41;;;;;;;0.30;0.30;;;11.10;99.90;;;;;;5076031;28;20174;-71
2022/05/10 01:40:31;;;;;;;0.30;0.30;;;11.20;99.90;;;;;;5075988;28;20540;-71
2022/05/10 01:43:11;;;;;;;0.30;0.30;;;11.20;99.90;;;;;;5075822;28;20191;-72
2022/05/10 01:45:43;;;;;;;0.30;0.30;;;11.20;99.90;;;;;;5076342;28;20169;-71
2022/05/10 01:48:14;;;;;;;0.40;0.40;;;11.10;99.90;;;;;;5074540;28;20201;-72
2022/05/10 01:50:40;;;;;;;0.30;0.30;;;11.20;99.90;;;;;;5075647;28;20166;-71
2022/05/10 01:53:15;;;;;;;0.30;0.30;;;11.10;99.90;;;;;;5075724;28;20285;-71
2022/05/10 01:55:51;;;;;;;1.30;1.30;;;11.10;99.90;;;;;;5075557;28;20177;-71
2022/05/10 01:58:26;;;;;;;0.30;0.30;;;11.00;99.90;;;;;;5075777;28;20170;-72
2022/05/10 02:01:11;;;;;;;0.30;0.30;;;11.00;99.90;;;;;;5074130;28;20177;-71
2022/05/10 02:04:18;;;;;;;0.30;0.30;;;11.00;99.90;;;;;;5075404;28;20251;-72
2022/05/10 02:06:55;;;;;;;1.13;1.13;;;11.00;99.90;;;;;;5073373;28;20219;-70
2022/05/10 02:09:35;;;;;;;0.30;0.30;;;11.00;99.90;;;;;;5073547;28;20235;-72
2022/05/10 02:12:13;;;;;;;0.30;0.30;;;11.00;99.90;;;;;;5074432;28;20205;-72
2022/05/10 02:14:45;;;;;;;0.40;0.40;;;11.10;99.90;;;;;;5075310;28;20252;-72
2022/05/10 02:17:34;;;;;;;0.47;0.47;;;11.10;99.90;;;;;;5075451;28;20273;-72
2022/05/10 02:20:28;;;;;;;0.40;0.40;;;11.20;99.90;;;;;;5074652;28;20185;-70
2022/05/10 02:23:09;;;;;;;0.30;0.30;;;11.20;99.90;;;;;;5074917;28;20627;-70
2022/05/10 02:25:45;;;;;;;0.30;0.30;;;11.10;99.90;;;;;;5075295;28;20260;-72
2022/05/10 02:29:00;;;;;;;0.30;0.30;;;11.10;99.90;;;;;;5075204;28;20541;-72
2022/05/10 02:34:37;;;;;;;0.30;0.30;;;11.10;99.90;;;;;;5074928;28;20196;-71
2022/05/10 02:37:02;;;;;;;0.30;0.30;;;11.00;99.90;;;;;;5074965;28;20561;-71
2022/05/10 02:39:28;;;;;;;0.30;0.30;;;10.90;99.90;;;;;;5074781;28;20173;-72
2022/05/10 02:41:54;;;;;;;0.30;0.30;;;10.90;99.90;;;;;;5074478;28;20442;-72
2022/05/10 02:44:20;;;;;;;0.30;0.30;;;10.90;99.90;;;;;;5074636;28;20645;-72
2022/05/10 02:46:46;;;;;;;0.30;0.30;;;11.00;99.90;;;;;;5074236;28;20230;-70
2022/05/10 02:49:11;;;;;;;0.30;0.30;;;11.00;99.90;;;;;;5074695;28;20404;-71
2022/05/10 02:51:37;;;;;;;0.30;0.30;;;11.00;99.90;;;;;;5074274;28;20511;-72
2022/05/10 02:54:03;;;;;;;0.40;0.40;;;11.00;99.90;;;;;;5074641;28;20569;-71
2022/05/10 02:56:30;;;;;;;1.33;1.33;;;10.90;99.90;;;;;;5074434;28;20178;-71
2022/05/10 02:59:14;;;;;;;0.30;0.30;;;10.90;99.90;;;;;;5074445;28;20200;-72
2022/05/10 03:02:09;;;;;;;0.30;0.30;;;10.80;99.90;;;;;;5074177;28;20176;-72
2022/05/10 03:04:44;;;;;;;0.30;0.30;;;10.80;99.90;;;;;;5074242;28;20205;-71
2022/05/10 03:07:11;;;;;;;0.70;0.70;;;10.80;99.90;;;;;;5072918;28;20223;-71
2022/05/10 03:09:36;;;;;;;0.30;0.30;;;10.80;99.90;;;;;;5073009;28;20913;-71
2022/05/10 03:12:04;;;;;;;0.30;0.30;;;10.80;99.90;;;;;;5074066;28;20426;-72
2022/05/10 03:14:30;;;;;;;0.30;0.30;;;10.80;99.90;;;;;;5073951;28;20408;-72
2022/05/10 03:16:56;;;;;;;0.40;0.40;;;10.80;99.90;;;;;;5073968;28;20169;-73
2022/05/10 03:19:22;;;;;;;0.30;0.30;;;10.80;99.90;;;;;;5074214;28;20656;-72
2022/05/10 03:21:48;;;;;;;0.30;0.30;;;10.80;99.90;;;;;;5073732;28;20162;-72
2022/05/10 03:24:14;;;;;;;0.30;0.30;;;10.90;99.90;;;;;;5073181;28;20193;-72
2022/05/10 03:26:45;;;;;;;0.50;0.50;;;10.90;99.90;;;;;;5071971;28;20686;-71
2022/05/10 03:29:10;;;;;;;0.57;0.57;;;11.30;99.90;;;;;;5074110;28;20401;-72
2022/05/10 03:31:36;;;;;;;0.30;0.30;;;11.90;99.90;;;;;;5073706;28;20408;-70
2022/05/10 03:36:49;;;;;;;0.30;0.30;;;12.50;99.90;;;;;;5074254;28;20633;-68
2022/05/10 03:39:14;;;;;;;0.30;0.30;;;12.40;99.90;;;;;;5074354;28;20415;-69
2022/05/10 03:41:41;;;;;;;0.30;0.30;;;12.10;99.90;;;;;;5073514;28;20407;-68
2022/05/10 03:44:07;;;;;;;1.17;1.07;;;11.90;99.90;;;;;;5070884;28;20194;-69
2022/05/10 03:46:33;;;;;;;0.30;0.30;;;11.60;99.90;;;;;;5072201;28;20447;-69
2022/05/10 03:48:59;;;;;;;0.30;0.30;;;11.50;99.90;;;;;;5073853;28;20642;-72
2022/05/10 03:51:25;;;;;;;2.43;0.93;;;11.30;99.90;;;;;;5070991;28;20429;-69
2022/05/10 03:53:50;;;;;;;0.30;0.30;;;11.30;99.90;;;;;;5074255;28;20428;-72
2022/05/10 03:56:16;;;;;;;0.40;0.30;;;11.20;99.90;;;;;;5073289;28;20619;-73
2022/05/10 03:58:42;;;;;;;0.50;0.50;;;11.10;99.90;;;;;;5069649;28;20173;-75
2022/05/10 04:01:07;;;;;;;0.30;0.30;;;11.00;99.90;;;;;;5073017;28;20170;-73
2022/05/10 04:03:34;;;;;;;0.30;0.30;;;10.90;99.90;;;;;;5073081;28;20710;-74
2022/05/10 04:06:00;;;;;;;0.98;0.98;;;10.90;99.90;;;;;;5073124;28;20257;-72
2022/05/10 04:08:27;;;;;;;0.30;0.30;;;10.90;99.90;;;;;;5073358;28;20170;-72
2022/05/10 04:10:53;;;;;;;0.80;0.80;;;10.90;99.90;;;;;;5073312;28;20165;-74
2022/05/10 04:13:19;;;;;;;0.68;0.68;;;10.90;99.90;;;;;;5073419;28;20193;-74
2022/05/10 04:15:45;;;;;;;0.30;0.30;;;10.90;99.90;;;;;;5073403;28;20165;-72
2022/05/10 04:18:10;;;;;;;0.30;0.30;;;10.90;99.90;;;;;;5073398;28;20400;-74
2022/05/10 04:20:36;;;;;;;0.30;0.30;;;11.00;99.90;;;;;;5073327;28;20201;-73
2022/05/10 04:23:02;;;;;;;0.30;0.30;;;11.00;99.90;;;;;;5073071;28;20215;-75
2022/05/10 04:25:28;;;;;;;0.30;0.30;;;11.00;99.90;;;;;;5073212;28;20481;-74
2022/05/10 04:27:54;;;;;;;0.40;0.40;;;11.10;99.90;;;;;;5073399;28;20670;-72
2022/05/10 04:30:21;;;;;;;0.40;0.40;;;11.20;99.90;;;;;;5073135;28;20197;-72
2022/05/10 04:32:47;;;;;;;1.25;1.25;;;11.30;99.90;;;;;;5073034;28;20282;-72
2022/05/10 04:35:13;;;;;;;0.30;0.30;;;11.30;99.90;;;;;;5073206;28;20196;-72
2022/05/10 04:37:39;;;;;;;0.40;0.40;;;11.40;99.90;;;;;;5073264;28;20178;-74
2022/05/10 04:42:52;;;;;;;0.30;0.30;;;11.30;99.90;;;;;;5073431;28;20995;-72
2022/05/10 04:45:19;;;;;;;0.30;0.30;;;11.40;99.90;;;;;;5070400;28;20549;-74
2022/05/10 04:47:45;;;;;;;0.30;0.30;;;11.50;99.90;;;;;;5073411;28;20447;-73
2022/05/10 04:50:11;;;;;;;0.30;0.30;;;11.70;99.90;;;;;;5072494;28;20466;-75
2022/05/10 04:52:38;;;;;;;0.30;0.30;;;11.90;99.90;;;;;;5070749;28;20476;-74
2022/05/10 04:55:05;;;;;;;0.40;0.40;;;12.20;99.90;;;;;;5071395;28;20903;-72
2022/05/10 04:57:31;;;;;;;0.30;0.30;;;12.80;99.90;;;;;;5072396;28;20414;-74
2022/05/10 04:59:57;;;;;;;2.20;2.10;;;13.50;99.90;;;;;;5071043;28;20428;-75
2022/05/10 05:02:22;;;;;;;0.40;0.40;;;14.10;99.90;;;;;;5070833;28;20191;-74
2022/05/10 05:04:48;;;;;;;0.40;0.40;;;14.60;99.90;;;;;;5071862;28;20215;-75
2022/05/10 05:07:14;;;;;;;0.40;0.40;;;14.90;99.90;;;;;;5073002;28;20197;-74
2022/05/10 05:09:39;;;;;;;0.50;0.50;;;15.10;99.90;;;;;;5076019;28;20172;-74
2022/05/10 05:12:05;;;;;;;0.30;0.30;;;15.20;99.90;;;;;;5076385;28;20198;-72
2022/05/10 05:14:31;;;;;;;0.30;0.30;;;15.30;99.60;;;;;;5076936;28;20173;-71
2022/05/10 05:16:59;;;;;;;0.30;0.30;;;15.50;99.80;;;;;;5075706;28;20423;-71
2022/05/10 05:19:25;;;;;;;0.30;0.30;;;15.70;99.50;;;;;;5074701;28;20459;-72
2022/05/10 05:21:50;;;;;;;0.30;0.30;;;16.00;99.10;;;;;;5076080;28;20411;-72
2022/05/10 05:24:16;;;;;;;0.30;0.30;;;16.30;98.50;;;;;;5076274;28;20184;-71
2022/05/10 05:26:42;;;;;;;0.30;0.30;;;16.60;96.70;;;;;;5076156;28;20193;-71
2022/05/10 05:29:07;;;;;;;1.00;1.00;;;17.00;96.50;;;;;;5076406;28;20647;-72
2022/05/10 05:31:33;;;;;;;0.30;0.30;;;17.50;96.30;;;;;;5075804;28;20631;-72
2022/05/10 05:33:59;;;;;;;0.60;0.60;;;18.00;95.80;;;;;;5076107;28;20654;-71
2022/05/10 05:36:24;;;;;;;0.30;0.30;;;18.50;94.70;;;;;;5076365;28;20644;-72
2022/05/10 05:38:51;;;;;;;1.30;1.20;;;19.00;94.10;;;;;;5075999;28;20182;-73
2022/05/10 05:41:18;;;;;;;0.50;0.50;;;19.30;92.30;;;;;;5076144;28;20175;-72
2022/05/10 05:43:44;;;;;;;0.30;0.30;;;19.40;91.90;;;;;;5075851;28;20422;-71
2022/05/10 05:46:10;;;;;;;0.50;0.50;;;19.60;91.30;;;;;;5075914;28;20419;-73
2022/05/10 05:48:36;;;;;;;0.40;0.40;;;19.80;91.40;;;;;;5075944;28;20395;-73
2022/05/10 05:51:02;;;;;;;1.33;1.33;;;20.20;91.20;;;;;;5075696;28;20538;-71
2022/05/10 05:53:27;;;;;;;0.30;0.30;;;20.70;90.50;;;;;;5075648;28;20430;-72
2022/05/10 05:55:59;;;;;;;0.30;0.30;;;21.30;89.80;;;;;;5075729;28;20172;-73
2022/05/10 05:58:24;;;;;;;0.30;0.30;;;21.90;87.60;;;;;;5075805;28;20172;-72
2022/05/10 06:00:50;;;;;;;0.30;0.30;;;22.50;84.40;;;;;;5075387;28;20412;-71
2022/05/10 06:03:15;;;;;;;1.00;1.00;;;22.80;83.00;;;;;;5075383;28;20276;-72
2022/05/10 06:05:41;;;;;;;0.50;0.50;;;23.10;82.80;;;;;;5075387;28;20211;-73
2022/05/10 06:08:09;;;;;;;0.30;0.30;;;23.40;81.80;;;;;;5075392;28;20215;-73
2022/05/10 06:10:35;;;;;;;1.07;0.80;;;23.70;80.90;;;;;;5075262;28;20652;-72
2022/05/10 06:13:01;;;;;;;0.40;0.40;;;23.90;79.80;;;;;;5075242;28;20506;-71
2022/05/10 06:15:28;;;;;;;0.50;0.50;;;24.00;79.10;;;;;;5075395;28;20403;-73
2022/05/10 06:17:53;;;;;;;0.30;0.30;;;24.10;78.40;;;;;;5075377;28;20891;-72
2022/05/10 06:20:21;;;;;;;0.30;0.30;;;24.30;78.30;;;;;;5071516;28;20403;-71
2022/05/10 06:22:47;;;;;;;0.40;0.40;;;24.80;76.10;;;;;;5075276;28;20580;-72
2022/05/10 06:25:19;;;;;;;0.30;0.30;;;25.60;74.20;;;;;;5073652;28;20468;-71
2022/05/10 06:27:46;;;;;;;1.23;1.23;;;26.70;71.30;;;;;;5071972;28;20447;-73
2022/05/10 06:30:13;;;;;;;0.30;0.30;;;28.00;66.20;;;;;;5075473;28;20952;-73
2022/05/10 06:32:39;;;;;;;0.80;0.80;;;29.00;61.70;;;;;;5074459;28;20792;-72
2022/05/10 06:35:05;;;;;;;0.50;0.50;;;30.30;58.70;;;;;;5072706;28;20411;-73
2022/05/10 06:40:17;;;;;;;0.40;0.40;;;31.90;53.90;;;;;;5075239;28;20391;-72
2022/05/10 06:42:44;;;;;;;0.40;0.40;;;31.90;52.90;;;;;;5074615;28;20443;-74
2022/05/10 06:45:13;;;;;;;2.20;2.10;;;32.20;51.30;;;;;;5074743;28;20404;-73
2022/05/10 06:47:40;;;;;;;0.53;0.53;;;32.00;50.50;;;;;;5073043;28;20463;-72
2022/05/10 06:50:10;;;;;;;0.50;0.40;;;32.10;50.60;;;;;;5073897;28;20396;-74
2022/05/10 06:52:36;;;;;;;0.53;0.53;;;32.30;50.70;;;;;;5072460;28;20424;-74
2022/05/10 06:55:02;;;;;;;0.50;0.50;;;32.10;50.10;;;;;;5072181;28;20408;-75
2022/05/10 06:57:27;;;;;;;0.47;0.47;;;31.40;49.80;;;;;;5072749;28;20165;-73
2022/05/10 06:59:54;;;;;;;1.10;1.10;;;30.80;50.60;;;;;;5073041;28;20469;-75
2022/05/10 07:02:21;;;;;;;1.30;1.30;;;29.90;51.40;;;;;;5071721;28;20200;-75
2022/05/10 07:04:46;;;;;;;0.30;0.30;;;28.90;52.70;;;;;;5072055;28;20421;-75
2022/05/10 07:07:12;;;;;;;0.50;0.50;;;28.30;55.00;;;;;;5073330;28;20948;-72
2022/05/10 07:09:37;;;;;;;3.17;1.43;;;28.30;55.00;;;;;;5073616;28;20166;-75
2022/05/10 07:12:03;;;;;;;0.30;0.30;;;28.20;54.00;;;;;;5071834;28;20212;-75
2022/05/10 07:14:29;;;;;;;2.00;0.50;;;28.00;55.00;;;;;;5072380;28;20165;-75
2022/05/10 07:16:56;;;;;;;0.30;0.30;;;27.70;55.50;;;;;;5074264;28;20400;-72
2022/05/10 07:19:22;;;;;;;1.90;1.90;;;28.20;55.90;;;;;;5074394;28;20189;-75
2022/05/10 07:21:49;;;;;;;0.63;0.63;;;29.10;53.20;;;;;;5074304;28;20446;-75
2022/05/10 07:24:19;;;;;;;0.57;0.50;;;29.90;52.20;;;;;;5073854;28;20662;-74
2022/05/10 07:26:45;;;;;;;1.80;1.70;;;31.10;51.90;;;;;;5073982;28;20443;-75
2022/05/10 07:29:12;;;;;;;0.40;0.40;;;31.90;48.90;;;;;;5074094;28;20461;-74
2022/05/10 07:31:38;;;;;;;0.60;0.50;;;32.70;47.50;;;;;;5073582;28;20465;-73
2022/05/10 07:34:04;;;;;;;0.30;0.30;;;33.20;46.90;;;;;;5074228;28;20400;-74
2022/05/10 07:36:33;;;;;;;0.77;0.60;;;33.70;45.40;;;;;;5073313;28;20732;-74
2022/05/10 07:39:00;;;;;;;0.80;0.80;;;33.60;43.00;;;;;;5073409;28;20415;-73
2022/05/10 07:41:26;;;;;;;0.50;0.50;;;32.80;42.70;;;;;;5073761;28;20422;-76
2022/05/10 07:43:52;;;;;;;1.23;1.13;;;31.40;44.10;;;;;;5073393;28;20423;-76
2022/05/10 07:46:18;;;;;;;0.30;0.30;;;31.00;44.30;;;;;;5073107;28;20818;-74
2022/05/10 07:48:44;;;;;;;0.30;0.30;;;30.80;45.90;;;;;;5071852;28;20165;-73
2022/05/10 07:51:10;;;;;;;0.30;0.30;;;30.60;44.70;;;;;;5073904;28;20197;-74
2022/05/10 07:53:36;;;;;;;0.60;0.50;;;30.00;45.50;;;;;;5073443;28;20962;-74
2022/05/10 07:56:03;;;;;;;0.83;0.83;;;30.10;48.80;;;;;;5072120;28;20169;-75
2022/05/10 07:58:30;;;;;;;0.57;0.50;;;31.00;47.60;;;;;;5072545;28;20738;-76
2022/05/10 08:00:56;;;;;;;0.50;0.50;;;32.20;44.30;;;;;;5073291;28;20430;-75
2022/05/10 08:03:24;;;;;;;0.30;0.30;;;32.30;42.40;;;;;;5072130;28;20435;-74
2022/05/10 08:05:51;;;;;;;1.10;1.00;;;31.90;43.10;;;;;;5073559;28;20440;-76
2022/05/10 08:08:20;;;;;;;0.70;0.50;;;32.30;42.80;;;;;;5073209;28;20504;-76
2022/05/10 08:10:47;;;;;;;0.77;0.77;;;32.60;42.00;;;;;;5072353;28;20400;-74
2022/05/10 08:13:18;;;;;;;0.97;0.90;;;33.00;42.50;;;;;;5070898;28;20832;-74
2022/05/10 08:15:45;;;;;;;0.60;0.50;;;33.00;42.10;;;;;;5072659;28;20396;-75
2022/05/10 08:18:11;;;;;;;0.60;0.60;;;33.40;41.90;;;;;;5072081;28;20645;-75
2022/05/10 08:20:38;;;;;;;0.30;0.30;;;33.60;40.20;;;;;;5071127;28;20407;-75
2022/05/10 08:23:06;;;;;;;0.40;0.40;;;33.60;40.50;;;;;;5072443;28;20465;-74
2022/05/10 08:25:32;;;;;;;0.97;0.97;;;33.70;40.70;;;;;;5072557;28;20414;-73
2022/05/10 08:27:58;;;;;;;0.40;0.33;;;34.00;39.80;;;;;;5070968;28;21035;-74
2022/05/10 08:30:24;;;;;;;0.43;0.37;;;34.20;39.40;;;;;;5072074;28;20499;-74
2022/05/10 08:32:50;;;;;;;0.50;0.50;;;34.60;38.50;;;;;;5072321;28;20185;-75
2022/05/10 08:35:15;;;;;;;0.60;0.50;;;34.80;37.40;;;;;;5070481;28;20634;-74
2022/05/10 08:37:41;;;;;;;0.80;0.80;;;35.10;38.10;;;;;;5073446;28;20173;-75
2022/05/10 08:40:23;;;;;;;0.60;0.50;;;35.80;36.40;;;;;;5070948;28;20180;-73
2022/05/10 08:42:51;;;;;;;1.03;1.03;;;36.50;37.00;;;;;;5071744;28;20189;-74
2022/05/10 08:45:18;;;;;;;0.70;0.70;;;36.90;35.40;;;;;;5077299;28;20900;-75
2022/05/10 08:47:45;;;;;;;0.70;0.70;;;36.60;35.00;;;;;;5077498;28;20870;-75
2022/05/10 08:50:13;;;;;;;1.50;1.23;;;35.60;35.10;;;;;;5076925;28;20403;-74
2022/05/10 08:52:43;;;;;;;0.40;0.40;;;34.60;36.60;;;;;;5076971;28;20514;-73
2022/05/10 08:55:10;;;;;;;0.50;0.50;;;34.30;36.30;;;;;;5074975;28;20449;-75
2022/05/10 08:57:52;;;;;;;0.30;0.30;;;34.00;37.20;;;;;;5076203;28;20495;-73
2022/05/10 09:00:43;;;;;;;0.93;0.70;;;34.00;37.90;;;;;;5076594;28;20403;-75
2022/05/10 09:03:24;;;;;;;0.60;0.60;;;33.90;36.60;;;;;;5074143;28;20426;-73
2022/05/10 09:05:51;;;;;;;1.67;1.57;;;34.30;36.90;;;;;;5076679;28;20432;-73
2022/05/10 09:08:41;;;;;;;0.33;0.30;;;34.40;37.70;;;;;;5076591;28;20512;-75
2022/05/10 09:11:13;;;;;;;0.97;0.90;;;35.30;36.60;;;;;;5076421;28;20458;-75
2022/05/10 09:13:39;;;;;;;0.53;0.53;;;35.50;34.60;;;;;;5076456;28;20424;-73
2022/05/10 09:16:08;;;;;;;0.40;0.40;;;35.90;34.70;;;;;;5076331;28;20403;-74
2022/05/10 09:18:50;;;;;;;0.30;0.30;;;36.90;35.80;;;;;;5076478;28;20492;-73
2022/05/10 09:21:32;;;;;;;0.87;0.43;;;35.30;36.90;;;;;;5076165;28;20407;-73
2022/05/10 09:24:03;;;;;;;0.60;0.60;;;35.40;37.10;;;;;;5076014;28;20949;-73
2022/05/10 09:26:36;;;;;;;0.40;0.40;;;36.20;36.10;;;;;;5074468;28;20400;-71
2022/05/10 09:29:33;;;;;;;0.50;0.50;;;35.80;36.70;;;;;;5074941;28;20407;-72
2022/05/10 09:35:09;;;;;;;0.87;0.87;;;32.50;39.20;;;;;;5076519;28;20400;-73
2022/05/10 09:38:04;;;;;;;0.30;0.30;;;29.80;42.40;;;;;;5075405;28;20469;-73
2022/05/10 09:40:40;;;;;;;0.50;0.50;;;28.00;45.00;;;;;;5075894;28;20410;-73
2022/05/10 09:43:15;;;;;;;0.70;0.70;;;26.60;49.10;;;;;;5076527;28;20415;-74
2022/05/10 09:45:41;;;;;;;0.37;0.37;;;25.50;51.50;;;;;;5076313;28;20468;-74
2022/05/10 09:48:07;;;;;;;0.37;0.37;;;25.20;53.10;;;;;;5076433;28;20458;-72
2022/05/10 09:50:51;;;;;;;0.30;0.30;;;24.70;54.70;;;;;;5075252;28;20418;-73
2022/05/10 09:53:25;;;;;;;0.40;0.40;;;24.50;55.00;;;;;;5074608;28;20340;-72
2022/05/10 09:56:03;;;;;;;0.30;0.30;;;23.90;55.90;;;;;;5075743;28;20378;-74
2022/05/10 09:58:35;;;;;;;0.30;0.30;;;23.50;56.90;;;;;;5073781;28;20933;-72
2022/05/10 10:01:07;;;;;;;0.37;0.37;;;23.50;57.30;;;;;;5074963;28;20473;-73
2022/05/10 10:03:39;;;;;;;0.30;0.30;;;23.40;56.70;;;;;;5075532;28;20398;-72
2022/05/10 10:06:23;;;;;;;0.40;0.40;;;24.10;56.70;;;;;;5075725;28;20388;-73
2022/05/10 10:08:51;;;;;;;0.40;0.40;;;25.60;53.60;;;;;;5075625;28;20416;-73
2022/05/10 10:11:30;;;;;;;0.40;0.40;;;26.30;51.10;;;;;;5075270;28;20408;-74
2022/05/10 10:14:06;;;;;;;0.93;0.93;;;26.80;49.90;;;;;;5075305;28;20422;-74
2022/05/10 10:16:36;;;;;;;0.30;0.30;;;27.40;48.40;;;;;;5075467;28;20907;-72
2022/05/10 10:19:07;;;;;;;0.30;0.30;;;27.80;48.10;;;;;;5075355;28;20403;-74
2022/05/10 10:21:38;;;;;;;0.40;0.40;;;27.50;47.30;;;;;;5075132;28;20752;-72
2022/05/10 10:24:04;;;;;;;0.40;0.40;;;27.50;48.30;;;;;;5075078;28;20415;-73
2022/05/10 10:26:51;;;;;;;0.67;0.67;;;27.30;47.60;;;;;;5075427;28;20403;-74
2022/05/10 10:29:32;;;;;;;0.87;0.87;;;26.80;48.90;;;;;;5075106;28;20404;-73
2022/05/10 10:32:19;;;;;;;0.30;0.30;;;26.90;48.60;;;;;;5074806;28;20767;-74
2022/05/10 10:35:26;;;;;;;0.40;0.40;;;26.80;49.20;;;;;;5074317;28;20558;-73
2022/05/10 10:38:17;;;;;;;0.30;0.30;;;26.60;49.70;;;;;;5075039;28;20498;-73
2022/05/10 10:40:55;;;;;;;0.30;0.30;;;25.90;50.40;;;;;;5074671;28;20407;-74
2022/05/10 10:43:39;;;;;;;0.30;0.30;;;24.80;53.10;;;;;;5074891;28;20444;-74
2022/05/10 10:46:20;;;;;;;0.40;0.40;;;24.10;53.80;;;;;;5074864;28;20453;-73
2022/05/10 10:48:58;;;;;;;0.30;0.30;;;23.90;55.40;;;;;;5074477;28;20421;-72
2022/05/10 10:51:29;;;;;;;1.10;1.03;;;24.40;53.80;;;;;;5072688;28;20403;-72
2022/05/10 10:53:55;;;;;;;0.30;0.30;;;24.90;52.40;;;;;;5072555;28;20446;-74
2022/05/10 10:56:27;;;;;;;0.40;0.40;;;24.90;52.20;;;;;;5072452;28;20919;-74
2022/05/10 10:59:02;;;;;;;2.33;2.23;;;24.60;53.00;;;;;;5072885;28;20379;-73
2022/05/10 11:01:49;;;;;;;0.30;0.30;;;24.80;53.30;;;;;;5072220;28;20399;-73
2022/05/10 11:04:52;;;;;;;0.70;0.70;;;25.00;52.00;;;;;;5073259;28;20414;-72
2022/05/10 11:07:48;;;;;;;0.30;0.30;;;24.90;51.40;;;;;;5073835;28;20467;-74
2022/05/10 11:10:37;;;;;;;0.30;0.30;;;24.80;52.70;;;;;;5074277;28;20404;-73
2022/05/10 11:13:22;;;;;;;1.47;1.37;;;24.80;51.90;;;;;;5074216;28;20409;-73
2022/05/10 11:15:51;;;;;;;0.37;0.37;;;24.70;52.00;;;;;;5072880;28;20392;-74
2022/05/10 11:18:27;;;;;;;1.97;1.77;;;24.70;51.90;;;;;;5074094;28;20407;-74
2022/05/10 11:20:56;;;;;;;0.30;0.30;;;24.90;51.50;;;;;;5074048;28;20529;-73
2022/05/10 11:23:30;;;;;;;0.30;0.30;;;24.90;50.60;;;;;;5073781;28;20414;-74
2022/05/10 11:26:20;;;;;;;0.63;0.60;;;24.60;51.50;;;;;;5074154;28;20490;-73
2022/05/10 11:29:10;;;;;;;0.50;0.43;;;24.70;50.40;;;;;;5073897;28;20904;-73
2022/05/10 11:32:08;;;;;;;0.30;0.30;;;24.70;50.40;;;;;;5073983;28;20404;-74
2022/05/10 11:34:33;;;;;;;0.30;0.30;;;24.90;49.90;;;;;;5074088;28;20381;-74
2022/05/10 11:37:02;;;;;;;0.77;0.77;;;25.00;49.90;;;;;;5073971;28;20423;-73
2022/05/10 11:39:43;;;;;;;0.60;0.60;;;24.60;48.70;;;;;;5073823;28;20169;-74
2022/05/10 11:42:39;;;;;;;0.40;0.40;;;24.30;49.60;;;;;;5073719;28;20390;-74
2022/05/10 11:45:35;;;;;;;0.30;0.30;;;24.20;50.70;;;;;;5073647;28;20398;-74
2022/05/10 11:48:28;;;;;;;0.30;0.30;;;24.20;50.00;;;;;;5073949;28;20418;-73
2022/05/10 11:54:39;;;;;;;0.50;0.50;;;24.80;47.90;;;;;;5073669;28;20346;-73
2022/05/10 11:57:13;;;;;;;0.30;0.30;;;24.90;47.60;;;;;;5073790;28;20482;-73
2022/05/10 11:59:41;;;;;;;0.53;0.53;;;25.00;48.10;;;;;;5073278;28;20435;-72
2022/05/10 12:02:29;;;;;;;0.30;0.30;;;25.20;48.30;;;;;;5073274;28;20423;-74
2022/05/10 12:05:10;;;;;;;0.30;0.30;;;25.10;45.90;;;;;;5073527;28;20406;-72
2022/05/10 12:07:57;;;;;;;1.00;1.00;;;25.00;46.50;;;;;;5073371;28;20938;-74
2022/05/10 12:10:22;;;;;;;0.30;0.30;;;25.00;47.30;;;;;;5073243;28;20371;-73
2022/05/10 12:13:06;;;;;;;0.30;0.30;;;25.00;46.30;;;;;;5073476;28;20727;-73
2022/05/10 12:21:23;;;;;;;0.30;0.30;;;24.50;46.80;;;;;;5077492;28;20366;-74
2022/05/10 12:24:19;;;;;;;0.30;0.30;;;24.80;47.20;;;;;;5077260;28;20887;-73
2022/05/10 12:26:55;;;;;;;0.40;0.40;;;25.00;43.80;;;;;;5077163;28;20475;-73
2022/05/10 12:29:39;;;;;;;0.30;0.30;;;24.80;44.70;;;;;;5076068;28;20927;-74
2022/05/10 12:32:39;;;;;;;0.50;0.50;;;24.60;44.30;;;;;;5077215;28;20744;-72
2022/05/10 12:35:06;;;;;;;0.50;0.50;;;24.50;46.00;;;;;;5077117;28;20373;-74
2022/05/10 12:37:39;;;;;;;0.30;0.30;;;24.20;46.40;;;;;;5075886;28;20382;-72
2022/05/10 12:40:10;;;;;;;0.60;0.60;;;23.60;47.50;;;;;;5077270;28;20870;-74
2022/05/10 12:42:58;;;;;;;0.30;0.30;;;23.40;49.10;;;;;;5077031;28;20867;-74
2022/05/10 12:46:01;;;;;;;0.30;0.30;;;23.50;49.90;;;;;;5075769;28;20393;-73
2022/05/10 12:48:45;;;;;;;0.30;0.30;;;23.60;49.60;;;;;;5076857;28;20808;-73
2022/05/10 12:51:19;;;;;;;0.50;0.50;;;24.00;50.00;;;;;;5076701;28;20407;-74
2022/05/10 12:53:55;;;;;;;0.60;0.60;;;24.00;47.90;;;;;;5076964;28;20401;-74
2022/05/10 12:56:27;;;;;;;0.73;0.73;;;23.90;49.20;;;;;;5076818;28;20387;-74
2022/05/10 12:59:15;;;;;;;0.40;0.40;;;23.90;46.40;;;;;;5076943;28;20754;-73
2022/05/10 13:01:41;;;;;;;0.40;0.40;;;24.20;46.70;;;;;;5076598;28;20411;-72
2022/05/10 13:04:20;;;;;;;0.30;0.30;;;24.10;46.10;;;;;;5076548;28;20412;-73
2022/05/10 13:07:23;;;;;;;0.30;0.30;;;24.10;44.50;;;;;;5076394;28;20457;-74
2022/05/10 13:09:56;;;;;;;0.30;0.30;;;23.80;46.80;;;;;;5074899;28;20378;-74
2022/05/10 13:12:29;;;;;;;0.40;0.40;;;23.70;47.70;;;;;;5074210;28;20960;-74
2022/05/10 13:15:17;;;;;;;0.30;0.30;;;23.80;47.40;;;;;;5076569;28;20399;-74
2022/05/10 13:17:51;;;;;;;0.50;0.50;;;23.90;48.10;;;;;;5076887;28;20851;-74
2022/05/10 13:20:21;;;;;;;0.40;0.40;;;24.00;46.80;;;;;;5074362;28;20378;-73
2022/05/10 13:23:01;;;;;;;0.40;0.40;;;24.20;44.60;;;;;;5075247;28;20512;-72
2022/05/10 13:25:31;;;;;;;0.30;0.30;;;24.40;44.50;;;;;;5076567;28;20418;-73
2022/05/10 13:28:15;;;;;;;0.30;0.30;;;24.60;44.00;;;;;;5073588;28;20453;-74
2022/05/10 13:30:45;;;;;;;0.30;0.30;;;24.60;44.60;;;;;;5074088;28;20408;-73
2022/05/10 13:33:23;;;;;;;0.30;0.30;;;24.40;45.70;;;;;;5075731;28;20481;-74
2022/05/10 13:35:54;;;;;;;0.30;0.30;;;24.30;46.00;;;;;;5076025;28;20427;-74
2022/05/10 13:38:34;;;;;;;0.30;0.30;;;24.10;45.30;;;;;;5076144;28;20404;-72
2022/05/10 13:41:07;;;;;;;0.80;0.80;;;24.30;45.70;;;;;;5075923;28;20850;-72
2022/05/10 13:43:46;;;;;;;0.70;0.70;;;24.60;42.70;;;;;;5075801;28;20431;-74